Weather at Bien Hoa Air Base

Public forecast

Using degrees Celsius for public forecast. Weather courtesy of forecast.io.

Closest aviation weather report (METAR) to Bien Hoa Air Base

Closest report is Tan Son Nhat International Airport, 13.6 nm (25.2 km) SW.

2024/06/21 23:00 (retrieved 30 minutes ago)

VVTS 212300Z 21005KT 170V240 9999 FEW011 OVC077 26/25 Q1005 NOSIG

Closest aviation forecast (TAF) to Bien Hoa Air Base

Closest forecast is Tan Son Nhat International Airport, 13.6 nm (25.2 km) SW.

2024/06/21 18:37 (retrieved 5 hours ago)

TAF VVTS 211700Z 2118/2224 24008KT 9999 SCT015 SCT040 TEMPO 2118/2124 5000 TSRA SCT015 FEW017CB BKN040 TEMPO 2208/2212 24015G28KT 3000 TSRA SCT013 SCT015CB TEMPO 2212/2218 5000 SHRA SCT015 FEW017CB BKN040